Time;durP1;ratioP1;P1;durP2;ratioP2;P2;SDS_P1;SDS_P2;PMS_P1;PMS_P2;Temp;Humidity;BMP_temperature;BMP_pressure;BME280_temperature;BME280_humidity;BME280_pressure;Samples;Min_cycle;Max_cycle;Signal;HPM_P1;HPM_P2
2020/12/22 00:02:25;;;;;;;34.85;12.43;;;5.20;99.90;;;;;;5044255;28;20045;-71
2020/12/22 00:04:52;;;;;;;32.88;11.95;;;5.20;99.90;;;;;;5044385;28;20049;-71
2020/12/22 00:07:18;;;;;;;39.70;12.60;;;5.20;99.90;;;;;;5026084;28;20069;-71
2020/12/22 00:09:45;;;;;;;32.75;11.77;;;5.20;99.90;;;;;;5046416;28;20033;-71
2020/12/22 00:12:16;;;;;;;30.83;11.45;;;5.20;99.90;;;;;;5039433;28;20381;-71
2020/12/22 00:14:44;;;;;;;30.55;10.88;;;5.10;99.90;;;;;;5042498;28;20053;-71
2020/12/22 00:17:10;;;;;;;35.15;12.57;;;5.10;99.90;;;;;;5065243;28;20045;-71
2020/12/22 00:19:37;;;;;;;37.15;12.50;;;5.10;99.90;;;;;;5048112;28;20053;-71
2020/12/22 00:22:04;;;;;;;37.88;12.68;;;5.20;99.90;;;;;;5022259;28;20049;-71
2020/12/22 00:24:30;;;;;;;35.72;12.38;;;5.10;99.90;;;;;;5045575;28;20056;-70
2020/12/22 00:26:57;;;;;;;37.65;13.00;;;5.20;99.90;;;;;;5035794;28;20087;-71
2020/12/22 00:29:23;;;;;;;32.90;12.00;;;5.20;99.90;;;;;;5029818;28;20037;-71
2020/12/22 00:31:50;;;;;;;29.80;10.77;;;5.20;99.90;;;;;;5035677;28;20041;-71
2020/12/22 00:34:17;;;;;;;29.75;10.90;;;5.10;99.90;;;;;;5048113;28;20049;-72
2020/12/22 00:36:43;;;;;;;36.92;11.70;;;5.10;99.90;;;;;;5050777;28;20377;-71
2020/12/22 00:39:10;;;;;;;35.05;11.65;;;5.20;99.90;;;;;;5045293;28;20037;-71
2020/12/22 00:41:37;;;;;;;32.65;11.77;;;5.10;99.90;;;;;;5034885;28;20723;-71
2020/12/22 00:44:03;;;;;;;35.40;12.63;;;5.10;99.90;;;;;;5044068;28;20041;-71
2020/12/22 00:46:30;;;;;;;33.17;12.30;;;5.20;99.90;;;;;;5041734;28;20037;-71
2020/12/22 00:48:56;;;;;;;37.67;12.20;;;5.20;99.90;;;;;;5039765;28;20036;-71
2020/12/22 00:51:23;;;;;;;32.97;11.35;;;5.10;99.90;;;;;;5049546;28;20069;-72
2020/12/22 00:53:55;;;;;;;32.38;11.35;;;5.10;99.90;;;;;;5025599;28;20598;-71
2020/12/22 00:56:22;;;;;;;33.20;11.63;;;5.10;99.90;;;;;;5029380;28;20049;-71
2020/12/22 00:58:52;;;;;;;30.38;10.48;;;5.20;99.90;;;;;;5050695;28;20435;-71
2020/12/22 01:01:19;;;;;;;35.15;12.27;;;5.20;99.90;;;;;;5050952;28;20060;-71
2020/12/22 01:03:46;;;;;;;33.28;11.60;;;5.20;99.90;;;;;;5063656;28;20045;-71
2020/12/22 01:06:13;;;;;;;36.03;12.13;;;5.10;99.90;;;;;;5016486;28;20121;-71
2020/12/22 01:08:39;;;;;;;31.23;11.38;;;5.10;99.90;;;;;;5042765;28;20041;-71
2020/12/22 01:11:06;;;;;;;34.17;11.10;;;5.10;99.90;;;;;;5065406;28;20385;-72
2020/12/22 01:13:32;;;;;;;34.17;11.32;;;5.20;99.90;;;;;;5043610;28;20045;-71
2020/12/22 01:15:59;;;;;;;33.00;11.13;;;5.20;99.90;;;;;;5038728;28;20500;-71
2020/12/22 01:18:41;;;;;;;32.25;10.55;;;5.20;99.90;;;;;;5037865;28;20053;-71
2020/12/22 01:21:07;;;;;;;30.80;10.95;;;5.20;99.90;;;;;;5051070;28;20067;-71
2020/12/22 01:23:35;;;;;;;27.38;10.45;;;5.20;99.90;;;;;;5033628;28;20053;-71
2020/12/22 01:26:03;;;;;;;36.67;12.05;;;5.20;99.90;;;;;;5025131;28;20041;-71
2020/12/22 01:28:30;;;;;;;22.88;9.82;;;5.10;99.90;;;;;;5053807;28;20133;-71
2020/12/22 01:30:56;;;;;;;30.17;10.73;;;5.10;99.90;;;;;;5045122;28;20037;-71
2020/12/22 01:33:23;;;;;;;31.65;9.95;;;5.10;99.90;;;;;;5041271;28;20041;-71
2020/12/22 01:35:49;;;;;;;27.73;9.88;;;5.10;99.90;;;;;;5040038;28;20087;-71
2020/12/22 01:38:16;;;;;;;26.95;10.00;;;5.10;99.90;;;;;;5037961;28;20093;-71
2020/12/22 01:40:50;;;;;;;34.17;10.00;;;5.10;99.90;;;;;;5037512;28;20389;-71
2020/12/22 01:43:17;;;;;;;35.85;11.07;;;5.00;99.90;;;;;;5037404;28;20550;-71
2020/12/22 01:45:43;;;;;;;28.45;10.23;;;5.00;99.90;;;;;;5022388;28;20046;-70
2020/12/22 01:48:11;;;;;;;29.67;11.13;;;5.10;99.90;;;;;;5031668;28;20045;-72
2020/12/22 01:50:38;;;;;;;25.00;9.40;;;5.10;99.90;;;;;;5025690;28;20518;-72
2020/12/22 01:53:05;;;;;;;28.80;9.77;;;5.10;99.90;;;;;;5041717;28;20036;-72
2020/12/22 01:55:32;;;;;;;25.40;9.38;;;5.20;99.90;;;;;;5046909;28;20051;-72
2020/12/22 01:57:58;;;;;;;28.50;10.40;;;5.20;99.90;;;;;;5047539;28;20176;-72
2020/12/22 02:00:25;;;;;;;29.77;10.48;;;5.10;99.90;;;;;;5030922;28;20048;-71
2020/12/22 02:02:52;;;;;;;28.58;9.55;;;5.20;99.90;;;;;;5028743;28;20055;-71
2020/12/22 02:05:19;;;;;;;28.83;8.52;;;5.10;99.90;;;;;;5028533;28;20041;-71
2020/12/22 02:07:45;;;;;;;28.02;9.38;;;5.20;99.90;;;;;;5026274;28;20041;-72
2020/12/22 02:10:12;;;;;;;28.63;10.55;;;5.20;99.90;;;;;;5037361;28;20284;-71
2020/12/22 02:12:40;;;;;;;29.92;10.35;;;5.10;99.90;;;;;;5035997;28;20044;-71
2020/12/22 02:15:08;;;;;;;24.95;9.15;;;5.10;99.90;;;;;;5045444;28;20060;-71
2020/12/22 02:17:35;;;;;;;30.23;9.45;;;5.10;99.90;;;;;;5052027;28;20060;-71
2020/12/22 02:20:03;;;;;;;29.35;10.23;;;5.10;99.90;;;;;;5035773;28;20052;-72
2020/12/22 02:22:30;;;;;;;26.02;8.68;;;5.10;99.90;;;;;;5053668;28;20463;-72
2020/12/22 02:24:57;;;;;;;25.60;8.57;;;5.10;99.90;;;;;;5044283;28;20042;-71
2020/12/22 02:27:23;;;;;;;26.08;9.40;;;5.10;99.90;;;;;;5050419;28;20037;-71
2020/12/22 02:29:50;;;;;;;26.30;9.35;;;5.10;99.90;;;;;;5032472;28;20485;-70
2020/12/22 02:32:17;;;;;;;22.33;8.98;;;5.10;99.90;;;;;;5050125;28;20377;-70
2020/12/22 02:34:44;;;;;;;33.58;10.55;;;5.20;99.90;;;;;;5050456;28;20127;-69
2020/12/22 02:37:11;;;;;;;27.20;9.73;;;5.10;99.90;;;;;;5041292;28;20052;-70
2020/12/22 02:39:37;;;;;;;26.95;8.35;;;5.20;99.90;;;;;;5049490;28;20045;-69
2020/12/22 02:42:04;;;;;;;28.30;8.60;;;5.10;99.90;;;;;;5041110;28;20036;-70
2020/12/22 02:44:31;;;;;;;27.05;10.02;;;5.10;99.90;;;;;;5044389;28;20415;-70
2020/12/22 02:46:58;;;;;;;27.33;9.38;;;5.10;99.90;;;;;;5029954;28;20052;-70
2020/12/22 02:49:43;;;;;;;26.27;9.30;;;5.10;99.90;;;;;;5038453;28;20091;-70
2020/12/22 02:52:10;;;;;;;26.02;10.00;;;5.10;99.90;;;;;;5040141;28;20051;-70
2020/12/22 02:54:37;;;;;;;25.67;9.68;;;5.10;99.90;;;;;;5038770;28;20060;-70
2020/12/22 02:57:04;;;;;;;32.70;10.02;;;5.10;99.90;;;;;;5049213;28;20500;-70
2020/12/22 02:59:31;;;;;;;25.45;8.13;;;5.10;99.90;;;;;;5050717;28;20045;-70
2020/12/22 03:01:57;;;;;;;31.58;9.85;;;5.10;99.90;;;;;;5048767;28;20041;-70
2020/12/22 03:04:24;;;;;;;28.17;9.23;;;5.10;99.90;;;;;;5050155;28;20036;-70
2020/12/22 03:06:51;;;;;;;25.77;8.55;;;5.20;99.90;;;;;;5038594;28;20054;-70
2020/12/22 03:09:18;;;;;;;27.67;9.55;;;5.20;99.90;;;;;;5051150;28;20060;-70
2020/12/22 03:11:44;;;;;;;28.35;8.65;;;5.20;99.90;;;;;;5048337;28;20120;-70
2020/12/22 03:14:11;;;;;;;23.63;7.95;;;5.20;99.90;;;;;;5031179;28;20420;-70
2020/12/22 03:16:37;;;;;;;24.63;8.63;;;5.20;99.90;;;;;;5044312;28;20055;-70
2020/12/22 03:19:05;;;;;;;26.02;8.40;;;5.20;99.90;;;;;;5032711;28;20041;-70
2020/12/22 03:21:31;;;;;;;21.33;8.93;;;5.20;99.90;;;;;;5042423;28;20670;-70
2020/12/22 03:23:58;;;;;;;21.13;8.13;;;5.20;99.90;;;;;;5030584;28;20068;-70
2020/12/22 03:26:25;;;;;;;24.42;8.68;;;5.20;99.90;;;;;;5037943;28;20136;-70
2020/12/22 03:28:51;;;;;;;28.15;8.80;;;5.20;99.90;;;;;;5036202;28;20060;-70
2020/12/22 03:31:18;;;;;;;30.63;8.88;;;5.20;99.90;;;;;;5041750;28;20727;-70
2020/12/22 03:33:44;;;;;;;25.58;8.52;;;5.20;99.90;;;;;;5028863;28;20037;-71
2020/12/22 03:36:11;;;;;;;22.30;8.30;;;5.20;99.90;;;;;;5034270;28;20037;-70
2020/12/22 03:38:37;;;;;;;28.00;9.65;;;5.20;99.90;;;;;;5030572;28;20053;-70
2020/12/22 03:41:05;;;;;;;25.30;9.05;;;5.20;99.90;;;;;;5046047;28;20583;-70
2020/12/22 03:43:32;;;;;;;24.67;8.00;;;5.20;99.90;;;;;;5061751;28;20049;-70
2020/12/22 03:45:58;;;;;;;26.38;8.68;;;5.20;99.90;;;;;;5046228;28;20741;-70
2020/12/22 03:48:25;;;;;;;25.10;9.27;;;5.20;99.90;;;;;;5046269;28;20484;-71
2020/12/22 03:50:53;;;;;;;27.67;8.32;;;5.20;99.90;;;;;;5043600;28;20075;-71
2020/12/22 03:53:19;;;;;;;29.63;9.27;;;5.20;99.90;;;;;;5047896;28;20041;-71
2020/12/22 03:55:46;;;;;;;22.80;8.55;;;5.10;99.90;;;;;;5034859;28;20118;-71
2020/12/22 03:58:13;;;;;;;27.45;9.25;;;5.20;99.90;;;;;;5038242;28;20049;-71
2020/12/22 04:00:39;;;;;;;25.30;8.27;;;5.20;99.90;;;;;;5042566;28;20073;-71
2020/12/22 04:03:06;;;;;;;25.35;8.02;;;5.20;99.90;;;;;;5049629;28;20040;-71
2020/12/22 04:05:32;;;;;;;26.98;9.15;;;5.20;99.90;;;;;;5033074;28;20514;-70
2020/12/22 04:07:59;;;;;;;22.63;8.50;;;5.20;99.90;;;;;;5021789;28;20076;-70
2020/12/22 04:10:25;;;;;;;23.83;8.50;;;5.20;99.90;;;;;;5026978;28;20040;-70
2020/12/22 04:12:52;;;;;;;27.65;9.52;;;5.20;99.90;;;;;;5048245;28;20041;-70
2020/12/22 04:15:19;;;;;;;23.42;7.90;;;5.20;99.90;;;;;;5046253;28;20045;-70
2020/12/22 04:17:46;;;;;;;29.30;8.95;;;5.20;99.90;;;;;;5041392;28;20057;-70
2020/12/22 04:20:13;;;;;;;29.65;8.85;;;5.20;99.90;;;;;;5025639;28;20062;-70
2020/12/22 04:22:40;;;;;;;24.15;8.52;;;5.20;99.90;;;;;;5041747;28;20059;-70
2020/12/22 04:25:06;;;;;;;28.02;8.98;;;5.20;99.90;;;;;;5047331;28;20055;-71
2020/12/22 04:27:33;;;;;;;27.27;8.60;;;5.20;99.90;;;;;;5043331;28;20049;-71
2020/12/22 04:29:59;;;;;;;24.88;8.75;;;5.20;99.90;;;;;;5041760;28;20037;-70
2020/12/22 04:32:26;;;;;;;25.65;9.43;;;5.10;99.90;;;;;;5040019;28;20132;-70
2020/12/22 04:34:54;;;;;;;25.42;9.35;;;5.10;99.90;;;;;;5045479;28;20078;-70
2020/12/22 04:37:21;;;;;;;25.90;8.30;;;5.10;99.90;;;;;;5023358;28;20044;-70
2020/12/22 04:39:47;;;;;;;23.30;8.27;;;5.10;99.90;;;;;;5041862;28;20033;-71
2020/12/22 04:42:19;;;;;;;30.48;8.95;;;5.00;99.90;;;;;;5042426;28;20033;-71
2020/12/22 04:44:47;;;;;;;28.20;9.18;;;5.00;99.90;;;;;;5020924;28;20045;-70
2020/12/22 04:47:16;;;;;;;24.58;9.20;;;5.00;99.90;;;;;;5028999;28;20049;-71
2020/12/22 04:49:50;;;;;;;25.80;9.05;;;4.90;99.90;;;;;;5034194;28;20049;-71
2020/12/22 04:52:21;;;;;;;26.00;9.52;;;4.90;99.90;;;;;;5030143;28;20033;-71
2020/12/22 04:54:48;;;;;;;22.98;8.65;;;4.90;99.90;;;;;;5032577;28;20041;-71
2020/12/22 04:57:16;;;;;;;27.65;9.07;;;4.90;99.90;;;;;;5047972;28;20045;-71
2020/12/22 04:59:45;;;;;;;27.67;8.90;;;4.90;99.90;;;;;;5042007;28;20049;-71
2020/12/22 05:02:15;;;;;;;26.58;8.90;;;4.80;99.90;;;;;;5036390;28;20047;-71
2020/12/22 05:04:42;;;;;;;25.83;9.07;;;4.80;99.90;;;;;;5044052;28;20049;-70
2020/12/22 05:07:09;;;;;;;28.92;9.68;;;4.80;99.90;;;;;;5046666;28;20041;-70
2020/12/22 05:09:36;;;;;;;27.67;9.55;;;4.90;99.90;;;;;;5021582;28;20051;-70
2020/12/22 05:12:02;;;;;;;28.95;9.82;;;4.80;99.90;;;;;;5060826;28;20377;-70
2020/12/22 05:14:29;;;;;;;31.20;8.88;;;4.80;99.90;;;;;;5026573;28;20045;-70
2020/12/22 05:16:57;;;;;;;29.25;9.38;;;4.80;99.90;;;;;;5045871;28;20098;-71
2020/12/22 05:19:24;;;;;;;27.92;9.88;;;4.80;99.90;;;;;;5033224;28;20048;-71
2020/12/22 05:21:54;;;;;;;23.30;8.43;;;4.80;99.90;;;;;;5039435;28;20516;-71
2020/12/22 05:24:22;;;;;;;27.10;9.35;;;4.80;99.90;;;;;;5064078;28;20057;-71
2020/12/22 05:26:49;;;;;;;27.63;9.40;;;4.90;99.90;;;;;;5043067;28;20045;-71
2020/12/22 05:29:18;;;;;;;27.75;10.00;;;4.90;99.90;;;;;;5035937;28;20052;-71
2020/12/22 05:31:46;;;;;;;31.38;10.48;;;4.80;99.90;;;;;;5034608;28;20068;-71
2020/12/22 05:34:14;;;;;;;31.45;9.70;;;4.80;99.90;;;;;;5042442;28;20519;-71
2020/12/22 05:36:44;;;;;;;27.38;9.05;;;4.80;99.90;;;;;;5036089;28;20099;-71
2020/12/22 05:39:12;;;;;;;30.52;9.27;;;4.80;99.90;;;;;;5042154;28;20446;-71
2020/12/22 05:41:39;;;;;;;22.98;8.65;;;4.80;99.90;;;;;;5027337;28;20054;-71
2020/12/22 05:44:07;;;;;;;28.40;9.25;;;4.80;99.90;;;;;;5040485;28;20045;-70
2020/12/22 05:46:36;;;;;;;27.05;9.20;;;4.80;99.90;;;;;;5036787;28;20128;-70
2020/12/22 05:49:08;;;;;;;28.50;10.07;;;4.80;99.90;;;;;;5037064;28;20077;-70
2020/12/22 05:51:43;;;;;;;25.77;9.32;;;4.70;99.90;;;;;;5048233;28;20043;-70
2020/12/22 05:54:14;;;;;;;24.52;9.05;;;4.80;99.90;;;;;;5050253;28;20475;-71
2020/12/22 05:56:40;;;;;;;34.40;10.45;;;4.80;99.90;;;;;;5021747;28;20113;-69
2020/12/22 05:59:20;;;;;;;29.70;10.32;;;4.80;99.90;;;;;;5032987;28;20095;-70
2020/12/22 06:01:47;;;;;;;28.52;9.48;;;4.80;99.90;;;;;;5045781;28;20052;-69
2020/12/22 06:04:17;;;;;;;31.98;9.65;;;4.90;99.90;;;;;;5038540;28;20049;-70
2020/12/22 06:06:45;;;;;;;32.83;13.00;;;4.80;99.90;;;;;;5014027;28;20504;-70
2020/12/22 06:09:12;;;;;;;25.27;9.00;;;4.90;99.90;;;;;;5036893;28;20040;-70
2020/12/22 06:11:39;;;;;;;28.80;9.35;;;4.90;99.90;;;;;;5031888;28;20053;-70
2020/12/22 06:14:06;;;;;;;34.25;10.18;;;4.90;99.90;;;;;;5033384;28;20041;-70
2020/12/22 06:16:33;;;;;;;29.90;9.65;;;4.90;99.90;;;;;;5042604;28;20061;-70
2020/12/22 06:19:00;;;;;;;26.38;10.15;;;4.80;99.90;;;;;;5033327;28;20736;-70
2020/12/22 06:21:27;;;;;;;30.85;11.45;;;4.70;99.90;;;;;;5045784;28;20087;-70
2020/12/22 06:23:55;;;;;;;30.67;10.13;;;4.70;99.90;;;;;;5043362;28;20045;-70
2020/12/22 06:26:22;;;;;;;32.45;10.73;;;4.70;99.90;;;;;;5026566;28;20573;-70
2020/12/22 06:28:48;;;;;;;27.90;9.80;;;4.70;99.90;;;;;;5032935;28;20132;-71
2020/12/22 06:31:16;;;;;;;33.30;12.65;;;4.70;99.90;;;;;;5037466;28;20033;-70
2020/12/22 06:33:43;;;;;;;34.25;11.45;;;4.70;99.90;;;;;;5033556;28;20064;-70
2020/12/22 06:36:14;;;;;;;37.00;12.52;;;4.70;99.90;;;;;;5036178;28;20385;-70
2020/12/22 06:39:01;;;;;;;38.38;14.13;;;4.70;99.90;;;;;;5036601;28;20700;-70
2020/12/22 06:41:34;;;;;;;27.13;10.68;;;4.60;99.90;;;;;;5048059;28;20140;-70
2020/12/22 06:44:12;;;;;;;48.25;15.52;;;4.60;99.90;;;;;;5039388;28;20516;-71
2020/12/22 06:46:41;;;;;;;51.97;17.90;;;4.60;99.90;;;;;;5042185;28;20053;-71
2020/12/22 06:49:09;;;;;;;37.97;12.73;;;4.60;99.90;;;;;;5038636;28;20562;-71
2020/12/22 06:51:40;;;;;;;39.55;12.93;;;4.60;99.90;;;;;;5044797;28;20041;-71
2020/12/22 06:54:14;;;;;;;29.25;11.25;;;4.60;99.90;;;;;;5045421;28;20135;-71
2020/12/22 06:56:49;;;;;;;33.72;11.40;;;4.50;99.90;;;;;;5035359;28;20503;-71
2020/12/22 06:59:39;;;;;;;32.42;10.65;;;4.50;99.90;;;;;;5052449;28;20609;-71
2020/12/22 07:02:30;;;;;;;29.40;9.73;;;4.50;99.90;;;;;;5039968;28;20069;-71
2020/12/22 07:04:58;;;;;;;27.30;10.70;;;4.40;99.90;;;;;;5051299;28;20443;-70
2020/12/22 07:07:24;;;;;;;32.40;11.50;;;4.50;99.90;;;;;;5046510;28;20047;-71
2020/12/22 07:10:06;;;;;;;32.55;10.00;;;4.50;99.90;;;;;;5033751;28;20041;-71
2020/12/22 07:12:36;;;;;;;37.40;11.40;;;4.40;99.90;;;;;;5043467;28;20183;-70
2020/12/22 07:15:03;;;;;;;33.22;12.10;;;4.50;99.90;;;;;;5045294;28;20434;-70
2020/12/22 07:17:30;;;;;;;34.67;11.65;;;4.50;99.90;;;;;;5046535;28;20048;-70
2020/12/22 07:19:58;;;;;;;41.38;11.95;;;4.50;99.90;;;;;;5049990;28;20048;-70
2020/12/22 07:22:35;;;;;;;33.70;11.95;;;4.40;99.90;;;;;;5050459;28;20064;-70
2020/12/22 07:25:04;;;;;;;32.40;11.30;;;4.40;99.90;;;;;;5045807;28;20041;-70
2020/12/22 07:27:32;;;;;;;34.53;12.38;;;4.40;99.90;;;;;;5029025;28;20060;-70
2020/12/22 07:29:59;;;;;;;36.72;11.10;;;4.40;99.90;;;;;;5043578;28;20571;-70
2020/12/22 07:32:26;;;;;;;34.38;11.23;;;4.40;99.90;;;;;;5045098;28;20095;-70
2020/12/22 07:34:53;;;;;;;31.98;10.48;;;4.50;99.90;;;;;;5026186;28;20141;-69
2020/12/22 07:37:19;;;;;;;35.58;12.32;;;4.50;99.90;;;;;;5017292;28;20069;-71
2020/12/22 07:39:46;;;;;;;33.20;12.48;;;4.60;99.90;;;;;;5045147;28;20080;-70
2020/12/22 07:42:13;;;;;;;35.72;13.35;;;4.60;99.90;;;;;;5049936;28;20057;-70
2020/12/22 07:44:41;;;;;;;36.45;12.65;;;4.60;99.90;;;;;;5045559;28;20041;-70
2020/12/22 07:47:09;;;;;;;38.58;13.70;;;4.60;99.90;;;;;;5050834;28;20090;-69
2020/12/22 07:49:41;;;;;;;34.10;11.52;;;4.60;99.90;;;;;;5043612;28;20054;-70
2020/12/22 07:52:18;;;;;;;35.75;13.30;;;4.50;99.90;;;;;;5039948;28;20037;-70
2020/12/22 07:54:56;;;;;;;30.85;11.10;;;4.60;99.90;;;;;;5046567;28;20045;-70
2020/12/22 07:57:24;;;;;;;38.15;11.63;;;4.50;99.90;;;;;;5045541;28;20048;-70
2020/12/22 08:00:00;;;;;;;32.90;11.25;;;4.50;99.90;;;;;;5048761;28;20114;-70
2020/12/22 08:02:26;;;;;;;36.05;11.57;;;4.50;99.90;;;;;;5048169;28;20046;-72
2020/12/22 08:04:54;;;;;;;35.58;11.35;;;4.50;99.90;;;;;;5047327;28;20451;-70
2020/12/22 08:07:20;;;;;;;31.30;11.07;;;4.60;99.90;;;;;;5021449;28;20057;-70
2020/12/22 08:09:47;;;;;;;36.20;11.43;;;4.50;99.90;;;;;;5039952;28;20056;-70
2020/12/22 08:12:13;;;;;;;34.33;11.88;;;4.60;99.90;;;;;;5032249;28;20038;-70
2020/12/22 08:14:42;;;;;;;39.03;13.38;;;4.50;99.90;;;;;;5040620;28;20394;-70
2020/12/22 08:17:14;;;;;;;39.03;11.85;;;4.50;99.90;;;;;;5049017;28;20071;-69
2020/12/22 08:19:41;;;;;;;31.05;11.45;;;4.50;99.90;;;;;;5046141;28;20044;-71
2020/12/22 08:22:08;;;;;;;35.17;12.23;;;4.60;99.90;;;;;;5046530;28;20053;-71
2020/12/22 08:24:35;;;;;;;33.40;11.25;;;4.60;99.90;;;;;;5048930;28;20064;-70
2020/12/22 08:27:02;;;;;;;36.85;12.52;;;4.60;99.90;;;;;;5050485;28;20029;-70
2020/12/22 08:29:29;;;;;;;40.83;14.43;;;4.60;99.90;;;;;;5047851;28;20072;-70
2020/12/22 08:32:00;;;;;;;40.42;13.43;;;4.70;99.90;;;;;;5021613;28;20040;-70
2020/12/22 08:34:28;;;;;;;39.72;13.05;;;4.70;99.90;;;;;;5050411;28;20045;-71
2020/12/22 08:36:55;;;;;;;40.42;13.20;;;4.70;99.90;;;;;;5036852;28;20044;-70
2020/12/22 08:39:23;;;;;;;35.15;12.88;;;4.70;99.90;;;;;;5036039;28;20042;-70
2020/12/22 08:41:55;;;;;;;36.10;13.18;;;4.70;99.90;;;;;;5046504;28;20056;-70
2020/12/22 08:44:25;;;;;;;45.50;17.80;;;4.80;99.90;;;;;;5066389;28;20132;-70
2020/12/22 08:46:54;;;;;;;40.28;15.70;;;4.80;99.90;;;;;;5045057;28;20033;-70
2020/12/22 08:49:26;;;;;;;39.72;13.68;;;4.80;99.90;;;;;;5026875;28;20395;-70
2020/12/22 08:51:56;;;;;;;34.72;13.68;;;4.90;99.90;;;;;;5047132;28;20476;-70
2020/12/22 08:54:27;;;;;;;38.17;14.05;;;4.90;99.90;;;;;;5050413;28;20045;-70
2020/12/22 08:57:10;;;;;;;41.92;13.48;;;4.80;99.90;;;;;;5038272;28;20238;-67
2020/12/22 08:59:37;;;;;;;32.67;12.70;;;4.90;99.90;;;;;;5040651;28;20041;-67
2020/12/22 09:02:04;;;;;;;37.30;13.25;;;5.00;99.90;;;;;;5036405;28;20049;-67
2020/12/22 09:04:32;;;;;;;39.53;13.38;;;5.00;99.90;;;;;;5032703;28;20515;-67
2020/12/22 09:06:59;;;;;;;38.97;12.98;;;5.00;99.90;;;;;;5047422;28;20107;-68
2020/12/22 09:09:33;;;;;;;33.35;12.85;;;5.00;99.90;;;;;;5034478;28;20037;-67
2020/12/22 09:12:09;;;;;;;37.60;13.73;;;5.00;99.90;;;;;;5038391;28;20059;-67
2020/12/22 09:14:43;;;;;;;32.70;13.38;;;5.00;99.90;;;;;;5032965;28;20041;-67
2020/12/22 09:17:12;;;;;;;38.33;13.70;;;5.00;99.90;;;;;;5045229;28;20042;-67
2020/12/22 09:19:49;;;;;;;36.08;13.48;;;5.00;99.90;;;;;;5045963;28;20053;-67
2020/12/22 09:22:24;;;;;;;31.58;11.85;;;4.90;99.90;;;;;;5049598;28;20063;-67
2020/12/22 09:24:58;;;;;;;29.90;11.10;;;5.00;99.90;;;;;;5048978;28;20059;-67
2020/12/22 09:27:39;;;;;;;31.88;11.68;;;5.00;99.90;;;;;;5046111;28;20048;-67
2020/12/22 09:30:08;;;;;;;41.38;13.70;;;4.90;99.90;;;;;;5038775;28;20114;-67
2020/12/22 09:32:40;;;;;;;40.97;14.60;;;4.90;99.90;;;;;;5032401;28;20037;-68
2020/12/22 09:35:07;;;;;;;34.22;13.25;;;5.00;99.90;;;;;;5042508;28;20033;-68
2020/12/22 09:37:34;;;;;;;30.45;11.63;;;5.00;99.90;;;;;;5040437;28;20507;-67
2020/12/22 09:40:01;;;;;;;36.38;13.07;;;5.00;99.90;;;;;;5046543;28;20051;-68
2020/12/22 09:42:27;;;;;;;36.70;13.52;;;5.00;99.90;;;;;;5037986;28;20057;-67
2020/12/22 09:44:54;;;;;;;35.05;11.98;;;5.00;99.90;;;;;;5036734;28;20063;-68
2020/12/22 09:47:21;;;;;;;32.83;13.05;;;4.90;99.90;;;;;;5045128;28;20918;-68
2020/12/22 09:49:48;;;;;;;34.22;11.63;;;5.00;99.90;;;;;;5040005;28;20419;-67
2020/12/22 09:52:14;;;;;;;36.88;12.68;;;5.00;99.90;;;;;;5041156;28;20048;-67
2020/12/22 09:54:41;;;;;;;33.65;11.90;;;5.00;99.90;;;;;;5056078;28;20493;-67
2020/12/22 09:57:08;;;;;;;37.78;12.55;;;5.00;99.90;;;;;;5039113;28;20053;-67
2020/12/22 09:59:35;;;;;;;33.08;11.23;;;5.00;99.90;;;;;;5034846;28;20508;-67
2020/12/22 10:02:02;;;;;;;32.67;11.23;;;5.00;99.90;;;;;;5042949;28;20055;-67
2020/12/22 10:04:29;;;;;;;34.17;12.10;;;5.00;99.90;;;;;;5028732;28;20045;-67
2020/12/22 10:06:56;;;;;;;35.75;12.25;;;5.00;99.90;;;;;;5042714;28;20029;-68
2020/12/22 10:09:22;;;;;;;34.58;12.35;;;5.00;99.90;;;;;;5037973;28;20049;-67
2020/12/22 10:11:49;;;;;;;37.72;11.95;;;5.00;99.90;;;;;;5040070;28;20044;-68
2020/12/22 10:14:16;;;;;;;35.78;12.30;;;5.00;99.90;;;;;;5045071;28;20099;-67
2020/12/22 10:16:43;;;;;;;32.90;11.60;;;5.00;99.90;;;;;;5056805;28;20444;-68
2020/12/22 10:19:10;;;;;;;40.58;13.15;;;5.10;99.90;;;;;;5036117;28;20095;-68
2020/12/22 10:21:37;;;;;;;34.90;12.35;;;5.10;99.90;;;;;;5040431;28;20065;-67
2020/12/22 10:24:06;;;;;;;31.55;12.35;;;5.10;99.90;;;;;;5045533;28;20049;-68
2020/12/22 10:26:36;;;;;;;33.88;10.23;;;5.10;99.90;;;;;;5025525;28;20415;-67
2020/12/22 10:29:02;;;;;;;37.42;12.25;;;5.00;99.90;;;;;;5040548;28;20052;-67
2020/12/22 10:31:29;;;;;;;32.60;12.07;;;5.00;99.90;;;;;;5048516;28;20060;-68
2020/12/22 10:33:56;;;;;;;35.00;13.88;;;5.10;99.90;;;;;;5049470;28;20037;-68
2020/12/22 10:36:26;;;;;;;35.30;12.82;;;5.10;99.90;;;;;;5046638;28;20057;-68
2020/12/22 10:38:55;;;;;;;35.38;12.80;;;5.10;99.90;;;;;;5036928;28;20053;-68
2020/12/22 10:41:23;;;;;;;30.17;11.32;;;5.10;99.90;;;;;;5037141;28;20052;-69
2020/12/22 10:43:50;;;;;;;34.63;12.55;;;5.10;99.90;;;;;;5042491;28;20119;-68
2020/12/22 10:46:17;;;;;;;33.90;11.38;;;5.20;99.90;;;;;;5066206;28;20041;-68
2020/12/22 10:48:44;;;;;;;31.10;11.23;;;5.30;99.90;;;;;;5050170;28;20057;-70
2020/12/22 10:51:12;;;;;;;43.17;13.18;;;5.30;99.90;;;;;;5052735;28;20567;-69
2020/12/22 10:53:40;;;;;;;33.22;12.07;;;5.30;99.90;;;;;;5049848;28;20045;-69
2020/12/22 10:56:14;;;;;;;36.35;12.68;;;5.30;99.90;;;;;;5043685;28;20044;-69
2020/12/22 10:58:44;;;;;;;35.78;12.70;;;5.30;99.90;;;;;;5045031;28;20045;-69
2020/12/22 11:01:15;;;;;;;34.88;12.88;;;5.30;99.90;;;;;;5036328;28;20475;-69
2020/12/22 11:03:43;;;;;;;36.20;12.05;;;5.30;99.90;;;;;;5038849;28;20531;-69
2020/12/22 11:08:42;;;;;;;41.17;14.07;;;5.30;99.90;;;;;;5044275;28;20625;-68
2020/12/22 11:11:09;;;;;;;40.80;14.32;;;5.30;99.90;;;;;;5052442;28;20061;-68
2020/12/22 11:13:36;;;;;;;44.47;15.20;;;5.30;99.90;;;;;;5044860;28;20041;-68
2020/12/22 11:16:05;;;;;;;46.78;15.07;;;5.30;99.90;;;;;;5049523;28;20054;-69
2020/12/22 11:18:33;;;;;;;47.72;15.35;;;5.30;99.90;;;;;;5036061;28;20052;-69
2020/12/22 11:21:00;;;;;;;47.83;15.68;;;5.30;99.90;;;;;;5027805;28;20065;-69
2020/12/22 11:23:41;;;;;;;57.85;18.92;;;5.30;99.90;;;;;;5036477;28;20045;-69
2020/12/22 11:26:10;;;;;;;50.17;16.80;;;5.30;99.90;;;;;;5038225;28;20043;-68
2020/12/22 11:28:38;;;;;;;45.53;15.15;;;5.40;99.90;;;;;;5037124;28;20041;-69
2020/12/22 11:31:05;;;;;;;47.22;15.52;;;5.30;99.90;;;;;;5040483;28;20116;-69
2020/12/22 11:33:32;;;;;;;48.45;16.45;;;5.30;99.90;;;;;;5036318;28;20068;-69
2020/12/22 11:35:58;;;;;;;49.35;16.70;;;5.30;99.90;;;;;;5042309;28;20053;-67
2020/12/22 11:38:25;;;;;;;58.15;19.20;;;5.40;99.90;;;;;;5040129;28;20045;-69
2020/12/22 11:40:51;;;;;;;58.78;19.08;;;5.40;99.90;;;;;;5046166;28;20073;-69
2020/12/22 11:43:18;;;;;;;52.38;17.02;;;5.40;99.90;;;;;;5043415;28;20045;-69
2020/12/22 11:45:44;;;;;;;58.55;18.23;;;5.40;99.90;;;;;;5038483;28;20582;-69
2020/12/22 11:48:11;;;;;;;59.92;19.90;;;5.40;99.90;;;;;;5037218;28;20033;-69
2020/12/22 11:50:37;;;;;;;55.88;17.92;;;5.40;99.90;;;;;;5039525;28;20057;-66
2020/12/22 11:53:04;;;;;;;47.80;15.95;;;5.50;99.90;;;;;;5044769;28;20396;-67
2020/12/22 11:55:33;;;;;;;48.53;16.23;;;5.50;99.90;;;;;;5044831;28;20045;-68
2020/12/22 11:57:59;;;;;;;52.42;16.80;;;5.50;99.90;;;;;;5048043;28;20075;-70
2020/12/22 12:00:26;;;;;;;45.17;16.73;;;5.50;99.90;;;;;;5042164;28;20450;-68
2020/12/22 12:02:52;;;;;;;52.67;17.20;;;5.50;99.90;;;;;;5027754;28;20804;-68
2020/12/22 12:05:19;;;;;;;54.90;17.38;;;5.50;99.90;;;;;;5025384;28;20045;-70
2020/12/22 12:07:45;;;;;;;51.78;16.75;;;5.60;99.90;;;;;;5044534;28;20045;-69
2020/12/22 12:10:12;;;;;;;43.72;16.73;;;5.60;99.90;;;;;;5039682;28;20049;-68
2020/12/22 12:12:38;;;;;;;51.63;16.63;;;5.60;99.90;;;;;;5036649;28;20838;-67
2020/12/22 12:15:06;;;;;;;46.83;17.15;;;5.60;99.90;;;;;;5055419;28;20461;-67
2020/12/22 12:17:33;;;;;;;47.72;15.75;;;5.60;99.90;;;;;;5033894;28;20141;-68
2020/12/22 12:19:59;;;;;;;53.42;16.30;;;5.50;99.90;;;;;;5040435;28;20040;-67
2020/12/22 12:22:26;;;;;;;48.65;16.55;;;5.50;99.90;;;;;;5036250;28;20049;-67
2020/12/22 12:24:52;;;;;;;50.40;14.93;;;5.50;99.90;;;;;;5041407;28;20052;-68
2020/12/22 12:27:19;;;;;;;58.67;17.13;;;5.50;99.90;;;;;;5041491;28;20052;-67
2020/12/22 12:29:46;;;;;;;71.32;20.88;;;5.60;99.90;;;;;;5022651;28;20065;-68
2020/12/22 12:32:12;;;;;;;58.97;18.52;;;5.50;99.90;;;;;;5043538;28;20464;-67
2020/12/22 12:34:39;;;;;;;57.45;18.58;;;5.60;99.90;;;;;;5038562;28;20497;-67
2020/12/22 12:37:06;;;;;;;49.85;16.50;;;5.50;99.90;;;;;;5046773;28;20056;-67
2020/12/22 12:39:32;;;;;;;51.10;17.75;;;5.60;99.90;;;;;;5036694;28;20136;-68
2020/12/22 12:41:59;;;;;;;60.22;18.95;;;5.70;99.90;;;;;;5031984;28;20617;-68
2020/12/22 12:44:26;;;;;;;60.22;15.77;;;5.70;99.90;;;;;;5035840;28;20396;-69
2020/12/22 12:46:53;;;;;;;57.85;16.85;;;5.70;99.90;;;;;;5030552;28;20069;-68
2020/12/22 12:49:19;;;;;;;54.40;17.00;;;5.70;99.90;;;;;;5038952;28;20522;-68